createdAt,value
2019-02-26T00:00:03.227Z,1037.6
2019-02-26T00:01:03.915Z,1037.6
2019-02-26T00:02:03.121Z,1037.6
2019-02-26T00:03:05.135Z,1037.6
2019-02-26T00:04:03.990Z,1037.6
2019-02-26T00:05:03.975Z,1037.7
2019-02-26T00:06:04.134Z,1037.5
2019-02-26T00:07:03.554Z,1037.6
2019-02-26T00:08:03.092Z,1037.6
2019-02-26T00:09:04.147Z,1037.6
2019-02-26T00:10:07.405Z,1037.5
2019-02-26T00:11:11.036Z,1037.5
2019-02-26T00:12:03.139Z,1037.6
2019-02-26T00:13:03.028Z,1037.5
2019-02-26T00:14:03.370Z,1037.6
2019-02-26T00:15:03.170Z,1037.5
2019-02-26T00:16:20.694Z,1037.6
2019-02-26T00:17:21.858Z,1037.4
2019-02-26T00:18:09.822Z,1037.4
2019-02-26T00:19:14.597Z,1037.4
2019-02-26T00:20:17.764Z,1037.5
2019-02-26T00:21:05.360Z,1037.4
2019-02-26T00:22:03.088Z,1037.3
2019-02-26T00:23:04.732Z,1037.5
2019-02-26T00:24:16.913Z,1037.5
2019-02-26T00:25:20.395Z,1037.3
2019-02-26T00:26:03.241Z,1037.2
2019-02-26T00:27:09.945Z,1037.2
2019-02-26T00:28:03.159Z,1037.2
2019-02-26T00:29:08.702Z,1037.2
2019-02-26T00:30:03.284Z,1037.2
2019-02-26T00:31:06.341Z,1037.3
2019-02-26T00:32:03.126Z,1037.2
2019-02-26T00:33:05.675Z,1037.2
2019-02-26T00:34:03.107Z,1037
2019-02-26T00:35:04.642Z,1037
2019-02-26T00:36:15.598Z,1037
2019-02-26T00:37:08.756Z,1037
2019-02-26T00:38:03.821Z,1037
2019-02-26T00:39:07.586Z,1037
2019-02-26T00:40:02.737Z,1037
2019-02-26T00:41:06.391Z,1037
2019-02-26T00:42:05.658Z,1037
2019-02-26T00:43:06.883Z,1037
2019-02-26T00:44:06.870Z,1036.9
2019-02-26T00:45:08.222Z,1036.9
2019-02-26T00:46:10.578Z,1036.9
2019-02-26T00:47:09.371Z,1036.9
2019-02-26T00:48:03.888Z,1036.9
2019-02-26T00:49:07.903Z,1036.9
2019-02-26T00:50:16.789Z,1036.9
2019-02-26T00:51:03.481Z,1036.8
2019-02-26T00:52:15.838Z,1036.8
2019-02-26T00:53:04.340Z,1036.9
2019-02-26T00:54:04.483Z,1036.8
2019-02-26T00:55:09.747Z,1036.8
2019-02-26T00:56:10.607Z,1036.8
2019-02-26T00:57:14.148Z,1036.8
2019-02-26T00:58:13.029Z,1036.7
2019-02-26T00:59:03.031Z,1036.9
2019-02-26T01:00:12.553Z,1036.9
2019-02-26T01:01:03.110Z,1036.9
2019-02-26T01:02:03.765Z,1036.9
2019-02-26T01:03:15.469Z,1036.9
2019-02-26T01:04:03.048Z,1036.9
2019-02-26T01:05:15.976Z,1036.8
2019-02-26T01:06:08.255Z,1036.8
2019-02-26T01:07:07.835Z,1036.9
2019-02-26T01:08:03.952Z,1036.8
2019-02-26T01:09:11.518Z,1036.9
2019-02-26T01:10:03.149Z,1037
2019-02-26T01:11:08.726Z,1036.9
2019-02-26T01:12:03.034Z,1036.9
2019-02-26T01:13:07.620Z,1036.9
2019-02-26T01:14:03.858Z,1036.8
2019-02-26T01:15:14.218Z,1036.8
2019-02-26T01:16:03.856Z,1036.8
2019-02-26T01:17:04.001Z,1036.8
2019-02-26T01:18:05.971Z,1036.7
2019-02-26T01:19:03.609Z,1036.8
2019-02-26T01:20:06.075Z,1036.7
2019-02-26T01:21:04.667Z,1036.8
2019-02-26T01:22:03.380Z,1036.8
2019-02-26T01:23:02.989Z,1036.9
2019-02-26T01:24:08.876Z,1036.8
2019-02-26T01:25:03.061Z,1036.9
2019-02-26T01:26:03.778Z,1036.9
2019-02-26T01:27:03.285Z,1036.9
2019-02-26T01:28:03.828Z,1036.9
2019-02-26T01:29:03.544Z,1036.9
2019-02-26T01:30:03.817Z,1036.8
2019-02-26T01:31:07.650Z,1036.8
2019-02-26T01:32:03.711Z,1036.9
2019-02-26T01:33:10.046Z,1037
2019-02-26T01:34:03.678Z,1036.9
2019-02-26T01:35:13.148Z,1037
2019-02-26T01:36:03.319Z,1037.1
2019-02-26T01:37:12.203Z,1037.2
2019-02-26T01:38:03.868Z,1037.2
2019-02-26T01:39:03.061Z,1037.1
2019-02-26T01:40:23.859Z,1037.1
2019-02-26T01:41:03.004Z,1037
2019-02-26T01:42:03.829Z,1037.1
2019-02-26T01:43:05.939Z,1037
2019-02-26T01:44:03.684Z,1037.1
2019-02-26T01:45:03.586Z,1037
2019-02-26T01:46:03.624Z,1037.1
2019-02-26T01:47:05.037Z,1037.1
2019-02-26T01:48:18.794Z,1037
2019-02-26T01:49:04.659Z,1037.1
2019-02-26T01:50:16.363Z,1037.2
2019-02-26T01:51:03.751Z,1037.2
2019-02-26T01:52:03.461Z,1037.2
2019-02-26T01:53:03.768Z,1037.2
2019-02-26T01:54:16.947Z,1037.2
2019-02-26T01:55:03.188Z,1037.2
2019-02-26T01:56:05.534Z,1037.2
2019-02-26T01:57:03.352Z,1037.4
2019-02-26T01:58:03.745Z,1037.2
2019-02-26T01:59:03.424Z,1037.3
2019-02-26T02:00:07.270Z,1037.3
2019-02-26T02:01:03.355Z,1037.4
2019-02-26T02:02:03.883Z,1037.4
2019-02-26T02:03:03.711Z,1037.4
2019-02-26T02:04:03.902Z,1037.4
2019-02-26T02:05:07.380Z,1037.4
2019-02-26T02:06:03.765Z,1037.4
2019-02-26T02:07:06.347Z,1037.4
2019-02-26T02:08:03.970Z,1037.5
2019-02-26T02:09:03.378Z,1037.4
2019-02-26T02:10:03.961Z,1037.5
2019-02-26T02:11:09.658Z,1037.4
2019-02-26T02:12:11.263Z,1037.4
2019-02-26T02:13:11.619Z,1037.3
2019-02-26T02:14:17.205Z,1037.4
2019-02-26T02:15:03.818Z,1037.4
2019-02-26T02:16:09.245Z,1037.4
2019-02-26T02:17:13.839Z,1037.3
2019-02-26T02:18:06.464Z,1037.4
2019-02-26T02:19:03.587Z,1037.3
2019-02-26T02:20:21.773Z,1037.4
2019-02-26T02:21:02.742Z,1037.2
2019-02-26T02:22:03.637Z,1037.3
2019-02-26T02:23:07.396Z,1037.2
2019-02-26T02:24:24.536Z,1037.2
2019-02-26T02:25:03.430Z,1037.2
2019-02-26T02:26:15.781Z,1037.2
2019-02-26T02:27:03.544Z,1037.3
2019-02-26T02:28:04.867Z,1037.2
2019-02-26T02:29:03.246Z,1037.2
2019-02-26T02:30:03.922Z,1037.1
2019-02-26T02:31:03.449Z,1037.1
2019-02-26T02:32:08.073Z,1037
2019-02-26T02:33:03.276Z,1037
2019-02-26T02:34:03.877Z,1037
2019-02-26T02:35:19.866Z,1037.3
2019-02-26T02:36:03.463Z,1037.1
2019-02-26T02:37:03.276Z,1037.3
2019-02-26T02:38:05.301Z,1037.3
2019-02-26T02:39:03.453Z,1037.2
2019-02-26T02:40:03.876Z,1037.2
2019-02-26T02:41:03.243Z,1037.1
2019-02-26T02:42:03.796Z,1037.1
2019-02-26T02:43:23.678Z,1037.1
2019-02-26T02:44:03.392Z,1037.1
2019-02-26T02:45:21.568Z,1037
2019-02-26T02:46:03.574Z,1037
2019-02-26T02:47:11.521Z,1037
2019-02-26T02:48:14.363Z,1037
2019-02-26T02:49:18.090Z,1037.1
2019-02-26T02:50:18.802Z,1037
2019-02-26T02:51:14.238Z,1037.2
2019-02-26T02:52:12.260Z,1037
2019-02-26T02:53:04.381Z,1037
2019-02-26T02:54:03.147Z,1037
2019-02-26T02:55:19.551Z,1037
2019-02-26T02:56:18.141Z,1037
2019-02-26T02:57:10.317Z,1036.9
2019-02-26T02:58:03.931Z,1037
2019-02-26T02:59:16.663Z,1036.9
2019-02-26T03:00:09.045Z,1036.9
2019-02-26T03:01:03.176Z,1036.9
2019-02-26T03:02:03.447Z,1036.9
2019-02-26T03:03:02.766Z,1036.9
2019-02-26T03:04:03.982Z,1036.9
2019-02-26T03:05:03.161Z,1036.9
2019-02-26T03:06:12.600Z,1036.9
2019-02-26T03:07:03.605Z,1036.9
2019-02-26T03:08:03.818Z,1036.7
2019-02-26T03:09:03.119Z,1036.7
2019-02-26T03:10:12.356Z,1036.7
2019-02-26T03:11:03.544Z,1036.6
2019-02-26T03:12:03.356Z,1036.6
2019-02-26T03:13:03.587Z,1036.6
2019-02-26T03:14:10.478Z,1036.6
2019-02-26T03:15:10.414Z,1036.6
2019-02-26T03:16:02.944Z,1036.6
2019-02-26T03:17:20.374Z,1036.7
2019-02-26T03:18:17.067Z,1036.8
2019-02-26T03:19:17.155Z,1036.8
2019-02-26T03:20:10.398Z,1036.8
2019-02-26T03:21:05.255Z,1036.8
2019-02-26T03:22:02.837Z,1036.7
2019-02-26T03:23:20.480Z,1036.7
2019-02-26T03:24:10.742Z,1036.8
2019-02-26T03:25:03.534Z,1036.8
2019-02-26T03:26:03.156Z,1036.9
2019-02-26T03:27:03.716Z,1036.8
2019-02-26T03:28:03.244Z,1036.8
2019-02-26T03:29:04.262Z,1036.8
2019-02-26T03:30:03.072Z,1036.9
2019-02-26T03:31:02.844Z,1036.8
2019-02-26T03:32:03.442Z,1036.8
2019-02-26T03:33:05.519Z,1036.8
2019-02-26T03:34:26.271Z,1036.8
2019-02-26T03:35:23.724Z,1036.7
2019-02-26T03:36:19.412Z,1036.7
2019-02-26T03:37:11.362Z,1036.8
2019-02-26T03:38:04.068Z,1036.7
2019-02-26T03:39:03.706Z,1036.7
2019-02-26T03:40:08.896Z,1036.7
2019-02-26T03:41:04.073Z,1036.7
2019-02-26T03:42:03.781Z,1036.8
2019-02-26T03:43:16.460Z,1036.5
2019-02-26T03:44:09.097Z,1036.7
2019-02-26T03:45:04.177Z,1036.7
2019-02-26T03:46:02.933Z,1036.7
2019-02-26T03:47:03.349Z,1036.8
2019-02-26T03:48:03.596Z,1036.7
2019-02-26T03:49:04.004Z,1036.7
2019-02-26T03:50:09.692Z,1036.7
2019-02-26T03:51:03.098Z,1036.7
2019-02-26T03:52:03.544Z,1036.7
2019-02-26T03:53:03.772Z,1036.6
2019-02-26T03:54:03.856Z,1036.6
2019-02-26T03:55:19.394Z,1036.6
2019-02-26T03:56:20.717Z,1036.6
2019-02-26T03:57:03.142Z,1036.5
2019-02-26T03:58:03.913Z,1036.5
2019-02-26T03:59:12.108Z,1036.5
2019-02-26T04:00:20.638Z,1036.6
2019-02-26T04:01:21.734Z,1036.6
2019-02-26T04:02:03.795Z,1036.5
2019-02-26T04:03:17.789Z,1036.5
2019-02-26T04:04:08.032Z,1036.6
2019-02-26T04:05:09.209Z,1036.5
2019-02-26T04:06:12.481Z,1036.5
2019-02-26T04:07:11.000Z,1036.5
2019-02-26T04:08:04.921Z,1036.6
2019-02-26T04:09:03.260Z,1036.7
2019-02-26T04:10:03.507Z,1036.8
2019-02-26T04:11:02.730Z,1036.5
2019-02-26T04:12:03.954Z,1036.6
2019-02-26T04:13:03.157Z,1036.5
2019-02-26T04:14:03.792Z,1036.6
2019-02-26T04:15:03.403Z,1036.6
2019-02-26T04:16:05.074Z,1036.5
2019-02-26T04:17:09.370Z,1036.5
2019-02-26T04:18:03.518Z,1036.6
2019-02-26T04:19:09.608Z,1036.6
2019-02-26T04:20:06.645Z,1036.4
2019-02-26T04:21:21.359Z,1036.5
2019-02-26T04:22:03.489Z,1036.3
2019-02-26T04:23:03.425Z,1036.3
2019-02-26T04:24:11.632Z,1036.3
2019-02-26T04:25:09.736Z,1036.4
2019-02-26T04:26:03.253Z,1036.3
2019-02-26T04:27:03.070Z,1036.4
2019-02-26T04:28:11.462Z,1036.5
2019-02-26T04:29:03.374Z,1036.2
2019-02-26T04:30:19.062Z,1036.3
2019-02-26T04:31:03.693Z,1036.2
2019-02-26T04:32:03.844Z,1036.2
2019-02-26T04:33:14.322Z,1036.2
2019-02-26T04:34:09.000Z,1036.2
2019-02-26T04:35:03.303Z,1036.1
2019-02-26T04:36:03.491Z,1036.1
2019-02-26T04:37:13.152Z,1036.1
2019-02-26T04:38:06.670Z,1036.3
2019-02-26T04:39:03.357Z,1036.1
2019-02-26T04:40:14.458Z,1036.1
2019-02-26T04:41:16.237Z,1036.1
2019-02-26T04:42:20.673Z,1036
2019-02-26T04:43:13.168Z,1036.1
2019-02-26T04:44:06.620Z,1036.1
2019-02-26T04:45:09.973Z,1036
2019-02-26T04:46:13.933Z,1036.1
2019-02-26T04:47:06.328Z,1036.1
2019-02-26T04:48:03.771Z,1036.2
2019-02-26T04:49:03.973Z,1036.2
2019-02-26T04:50:09.470Z,1036.2
2019-02-26T04:51:03.306Z,1036.2
2019-02-26T04:52:17.716Z,1036.2
2019-02-26T04:53:11.632Z,1036.1
2019-02-26T04:54:03.858Z,1036.2
2019-02-26T04:55:03.750Z,1036.2
2019-02-26T04:56:15.342Z,1036.2
2019-02-26T04:57:04.064Z,1036.1
2019-02-26T04:58:03.398Z,1036.1
2019-02-26T04:59:17.141Z,1036.1
2019-02-26T05:00:11.097Z,1036.1
2019-02-26T05:01:19.334Z,1036.1
2019-02-26T05:02:03.671Z,1036.2
2019-02-26T05:03:20.297Z,1036.3
2019-02-26T05:04:03.373Z,1036.2
2019-02-26T05:05:03.120Z,1036.1
2019-02-26T05:06:11.203Z,1036.3
2019-02-26T05:07:19.569Z,1036.3
2019-02-26T05:08:17.947Z,1036.3
2019-02-26T05:09:10.876Z,1036.2
2019-02-26T05:10:03.640Z,1036
2019-02-26T05:11:02.996Z,1036.1
2019-02-26T05:12:03.799Z,1036
2019-02-26T05:13:10.109Z,1036.1
2019-02-26T05:14:03.538Z,1036
2019-02-26T05:15:04.030Z,1036.1
2019-02-26T05:16:03.742Z,1036.1
2019-02-26T05:17:03.608Z,1036
2019-02-26T05:18:03.228Z,1036
2019-02-26T05:19:03.464Z,1036
2019-02-26T05:20:19.201Z,1035.9
2019-02-26T05:21:13.279Z,1036
2019-02-26T05:22:07.396Z,1036
2019-02-26T05:23:06.681Z,1036
2019-02-26T05:24:03.408Z,1035.9
2019-02-26T05:25:19.962Z,1036
2019-02-26T05:26:20.954Z,1036
2019-02-26T05:27:03.282Z,1036
2019-02-26T05:28:17.852Z,1036
2019-02-26T05:29:03.697Z,1035.9
2019-02-26T05:30:03.403Z,1035.8
2019-02-26T05:31:17.637Z,1035.9
2019-02-26T05:32:09.546Z,1035.8
2019-02-26T05:33:05.934Z,1035.7
2019-02-26T05:34:03.328Z,1035.7
2019-02-26T05:35:03.550Z,1035.9
2019-02-26T05:36:17.448Z,1035.7
2019-02-26T05:37:14.219Z,1035.8
2019-02-26T05:38:09.911Z,1035.8
2019-02-26T05:39:03.230Z,1035.8
2019-02-26T05:40:03.902Z,1035.8
2019-02-26T05:41:03.385Z,1035.8
2019-02-26T05:42:06.665Z,1035.8
2019-02-26T05:43:07.078Z,1035.8
2019-02-26T05:44:11.102Z,1035.7
2019-02-26T05:45:09.836Z,1035.7
2019-02-26T05:46:04.417Z,1035.8
2019-02-26T05:47:03.938Z,1035.8
2019-02-26T05:48:03.446Z,1035.8
2019-02-26T05:49:19.724Z,1035.9
2019-02-26T05:50:17.003Z,1035.8
2019-02-26T05:51:11.837Z,1035.9
2019-02-26T05:52:07.514Z,1035.9
2019-02-26T05:53:13.708Z,1035.9
2019-02-26T05:54:24.699Z,1035.9
2019-02-26T05:55:03.845Z,1035.8
2019-02-26T05:56:03.493Z,1035.8
2019-02-26T05:57:33.006Z,1035.9
2019-02-26T05:58:03.795Z,1035.8
2019-02-26T05:59:22.000Z,1035.9
2019-02-26T06:00:03.931Z,1035.9
2019-02-26T06:01:03.531Z,1035.9
2019-02-26T06:02:03.067Z,1036
2019-02-26T06:03:18.987Z,1035.9
2019-02-26T06:04:20.767Z,1036
2019-02-26T06:05:03.020Z,1036
2019-02-26T06:06:03.525Z,1036
2019-02-26T06:07:05.145Z,1036
2019-02-26T06:08:03.407Z,1036
2019-02-26T06:09:08.243Z,1036
2019-02-26T06:10:03.352Z,1035.9
2019-02-26T06:11:03.819Z,1036
2019-02-26T06:12:03.472Z,1036
2019-02-26T06:13:15.946Z,1036
2019-02-26T06:14:13.056Z,1036
2019-02-26T06:15:08.822Z,1036
2019-02-26T06:16:07.923Z,1036
2019-02-26T06:17:03.882Z,1036
2019-02-26T06:18:03.384Z,1036.1
2019-02-26T06:19:03.662Z,1036.1
2019-02-26T06:20:11.342Z,1036.2
2019-02-26T06:21:03.215Z,1036.3
2019-02-26T06:22:03.158Z,1036.2
2019-02-26T06:23:02.977Z,1036.2
2019-02-26T06:24:04.120Z,1036.2
2019-02-26T06:25:25.038Z,1036
2019-02-26T06:26:18.235Z,1036.1
2019-02-26T06:27:03.474Z,1036.1
2019-02-26T06:28:20.651Z,1036.1
2019-02-26T06:29:03.536Z,1036.1
2019-02-26T06:30:12.972Z,1036.1
2019-02-26T06:31:03.931Z,1036.1
2019-02-26T06:32:12.230Z,1036.2
2019-02-26T06:33:16.626Z,1036
2019-02-26T06:34:21.620Z,1036
2019-02-26T06:35:19.558Z,1036
2019-02-26T06:36:06.746Z,1036.1
2019-02-26T06:37:16.779Z,1036.1
2019-02-26T06:38:11.890Z,1036
2019-02-26T06:39:06.333Z,1036.1
2019-02-26T06:40:07.798Z,1036.1
2019-02-26T06:41:03.520Z,1036.2
2019-02-26T06:42:14.719Z,1036.2
2019-02-26T06:43:03.407Z,1036.3
2019-02-26T06:44:03.602Z,1036.3
2019-02-26T06:45:17.256Z,1036.3
2019-02-26T06:46:14.300Z,1036.3
2019-02-26T06:47:09.390Z,1036.3
2019-02-26T06:48:03.086Z,1036.3
2019-02-26T06:49:03.866Z,1036.2
2019-02-26T06:50:19.037Z,1036.1
2019-02-26T06:51:07.469Z,1036.2
2019-02-26T06:52:03.087Z,1036.2
2019-02-26T06:53:21.675Z,1036.2
2019-02-26T06:54:03.557Z,1036.2
2019-02-26T06:55:08.089Z,1036.2
2019-02-26T06:56:03.266Z,1036.2
2019-02-26T06:57:03.594Z,1036.2
2019-02-26T06:58:03.212Z,1036.2
2019-02-26T06:59:12.497Z,1036.2
2019-02-26T07:00:04.602Z,1036.2
2019-02-26T07:01:03.228Z,1036.3
2019-02-26T07:02:03.721Z,1036.2
2019-02-26T07:03:03.109Z,1036.1
2019-02-26T07:04:03.875Z,1036.3
2019-02-26T07:05:03.262Z,1036.2
2019-02-26T07:06:05.306Z,1036
2019-02-26T07:07:14.797Z,1036
2019-02-26T07:08:06.893Z,1036
2019-02-26T07:09:03.825Z,1036
2019-02-26T07:10:03.210Z,1036
2019-02-26T07:11:04.362Z,1036
2019-02-26T07:12:03.247Z,1036.1
2019-02-26T07:13:14.347Z,1036
2019-02-26T07:14:10.603Z,1036
2019-02-26T07:15:03.284Z,1036
2019-02-26T07:16:05.609Z,1035.9
2019-02-26T07:17:03.255Z,1036
2019-02-26T07:18:19.898Z,1036
2019-02-26T07:19:16.829Z,1036
2019-02-26T07:20:03.670Z,1035.9
2019-02-26T07:21:03.115Z,1035.9
2019-02-26T07:22:18.332Z,1035.9
2019-02-26T07:23:15.690Z,1035.9
2019-02-26T07:24:03.845Z,1035.8
2019-02-26T07:25:03.187Z,1035.8
2019-02-26T07:26:03.229Z,1035.9
2019-02-26T07:27:14.093Z,1035.9
2019-02-26T07:28:03.318Z,1035.9
2019-02-26T07:29:17.770Z,1035.7
2019-02-26T07:30:02.718Z,1035.7
2019-02-26T07:31:12.422Z,1035.7
2019-02-26T07:32:03.974Z,1035.6
2019-02-26T07:33:15.275Z,1035.7
2019-02-26T07:34:04.034Z,1035.8
2019-02-26T07:35:17.012Z,1035.7
2019-02-26T07:36:04.558Z,1035.7
2019-02-26T07:37:15.997Z,1035.6
2019-02-26T07:38:03.951Z,1035.5
2019-02-26T07:39:05.585Z,1035.5
2019-02-26T07:40:18.891Z,1035.5
2019-02-26T07:41:06.553Z,1035.5
2019-02-26T07:42:03.911Z,1035.5
2019-02-26T07:43:22.690Z,1035.5
2019-02-26T07:44:03.082Z,1035.5
2019-02-26T07:45:03.172Z,1035.4
2019-02-26T07:46:02.808Z,1035.5
2019-02-26T07:47:11.506Z,1035.5
2019-02-26T07:48:03.035Z,1035.5
2019-02-26T07:49:07.732Z,1035.2
2019-02-26T07:50:17.593Z,1035.3
2019-02-26T07:51:03.645Z,1035.4
2019-02-26T07:52:09.086Z,1035.3
2019-02-26T07:53:03.659Z,1035.3
2019-02-26T07:54:03.911Z,1035.2
2019-02-26T07:55:17.670Z,1035.3
2019-02-26T07:56:09.013Z,1035.3
2019-02-26T07:57:04.261Z,1035.3
2019-02-26T07:58:09.334Z,1035.2
2019-02-26T07:59:15.307Z,1035.2
2019-02-26T08:00:03.131Z,1035.2
2019-02-26T08:01:03.028Z,1035.1
2019-02-26T08:02:13.756Z,1035.1
2019-02-26T08:03:05.048Z,1035.2
2019-02-26T08:04:03.425Z,1035.2
2019-02-26T08:05:03.738Z,1035.2
2019-02-26T08:06:14.257Z,1035.2
2019-02-26T08:07:04.102Z,1035.2
2019-02-26T08:08:03.330Z,1035.2
2019-02-26T08:09:23.621Z,1035.2
2019-02-26T08:10:19.390Z,1035.2
2019-02-26T08:11:03.340Z,1035.2
2019-02-26T08:12:13.984Z,1035
2019-02-26T08:13:08.318Z,1035
2019-02-26T08:14:02.941Z,1035
2019-02-26T08:15:15.906Z,1035
2019-02-26T08:16:05.545Z,1035
2019-02-26T08:17:06.614Z,1035
2019-02-26T08:18:05.689Z,1035
2019-02-26T08:19:02.658Z,1035
2019-02-26T08:20:15.260Z,1035
2019-02-26T08:21:05.539Z,1034.9
2019-02-26T08:22:03.963Z,1035
2019-02-26T08:23:03.218Z,1034.9
2019-02-26T08:24:04.025Z,1034.9
2019-02-26T08:25:03.282Z,1034.8
2019-02-26T08:26:03.698Z,1034.9
2019-02-26T08:27:13.779Z,1034.8
2019-02-26T08:28:03.933Z,1034.8
2019-02-26T08:29:12.651Z,1034.6
2019-02-26T08:30:03.791Z,1034.6
2019-02-26T08:31:05.752Z,1034.5
2019-02-26T08:32:03.698Z,1034.6
2019-02-26T08:33:07.813Z,1034.5
2019-02-26T08:34:03.765Z,1034.6
2019-02-26T08:35:03.158Z,1034.6
2019-02-26T08:36:03.616Z,1034.6
2019-02-26T08:37:03.778Z,1034.6
2019-02-26T08:38:06.661Z,1034.6
2019-02-26T08:39:03.182Z,1034.7
2019-02-26T08:40:03.356Z,1034.6
2019-02-26T08:41:03.503Z,1034.7
2019-02-26T08:42:03.909Z,1034.6
2019-02-26T08:43:03.205Z,1034.6
2019-02-26T08:44:02.874Z,1034.6
2019-02-26T08:45:03.915Z,1034.6
2019-02-26T08:46:03.952Z,1034.6
2019-02-26T08:47:23.089Z,1034.7
2019-02-26T08:48:03.314Z,1034.6
2019-02-26T08:49:22.625Z,1034.6
2019-02-26T08:50:15.250Z,1034.5
2019-02-26T08:51:21.777Z,1034.4
2019-02-26T08:52:03.001Z,1034.5
2019-02-26T08:53:03.294Z,1034.4
2019-02-26T08:54:02.982Z,1034.4
2019-02-26T08:55:03.211Z,1034.4
2019-02-26T08:56:04.501Z,1034.3
2019-02-26T08:57:03.178Z,1034.2
2019-02-26T08:58:03.670Z,1034.3
2019-02-26T08:59:03.991Z,1034.3
2019-02-26T09:00:03.554Z,1034.3
2019-02-26T09:01:03.509Z,1034.4
2019-02-26T09:02:03.334Z,1034.4
2019-02-26T09:03:03.763Z,1034.4
2019-02-26T09:04:03.620Z,1034.5
2019-02-26T09:05:12.238Z,1034.4
2019-02-26T09:06:16.577Z,1034.4
2019-02-26T09:07:03.153Z,1034.4
2019-02-26T09:08:03.409Z,1034.4
2019-02-26T09:09:07.143Z,1034.2
2019-02-26T09:10:03.344Z,1034.1
2019-02-26T09:11:14.406Z,1034
2019-02-26T09:12:04.163Z,1033.9
2019-02-26T09:13:03.606Z,1034
2019-02-26T09:14:16.847Z,1033.9
2019-02-26T09:15:03.596Z,1034
2019-02-26T09:16:08.255Z,1034
2019-02-26T09:17:05.081Z,1034
2019-02-26T09:18:03.469Z,1033.9
2019-02-26T09:19:02.818Z,1034
2019-02-26T09:20:14.951Z,1034.1
2019-02-26T09:21:02.956Z,1034
2019-02-26T09:22:03.116Z,1034
2019-02-26T09:23:03.644Z,1033.9
2019-02-26T09:24:08.137Z,1033.8
2019-02-26T09:25:03.284Z,1034
2019-02-26T09:26:07.389Z,1033.9
2019-02-26T09:27:05.441Z,1033.8
2019-02-26T09:28:03.621Z,1033.8
2019-02-26T09:29:03.130Z,1033.7
2019-02-26T09:30:16.427Z,1033.6
2019-02-26T09:31:14.417Z,1033.6
2019-02-26T09:32:18.474Z,1033.6
2019-02-26T09:33:11.408Z,1033.6
2019-02-26T09:34:03.433Z,1033.7
2019-02-26T09:35:05.233Z,1033.6
2019-02-26T09:36:03.551Z,1033.6
2019-02-26T09:37:08.334Z,1033.6
2019-02-26T09:38:02.998Z,1033.7
2019-02-26T09:39:15.582Z,1033.6
2019-02-26T09:40:05.207Z,1033.6
2019-02-26T09:41:03.195Z,1033.6
2019-02-26T09:42:09.511Z,1033.6
2019-02-26T09:43:03.609Z,1033.6
2019-02-26T09:44:11.955Z,1033.5
2019-02-26T09:45:03.457Z,1033.4
2019-02-26T09:46:19.370Z,1033.4
2019-02-26T09:47:08.025Z,1033.4
2019-02-26T09:48:03.025Z,1033.4
2019-02-26T09:49:13.019Z,1033.5
2019-02-26T09:50:03.103Z,1033.5
2019-02-26T09:51:16.844Z,1033.5
2019-02-26T09:52:06.950Z,1033.5
2019-02-26T09:53:03.634Z,1033.4
2019-02-26T09:54:03.816Z,1033.4
2019-02-26T09:55:03.615Z,1033.5
2019-02-26T09:56:03.904Z,1033.4
2019-02-26T09:57:03.302Z,1033.4
2019-02-26T09:58:03.406Z,1033.3
2019-02-26T09:59:14.916Z,1033.2
2019-02-26T10:00:03.811Z,1033.2
2019-02-26T10:01:03.429Z,1033.3
2019-02-26T10:02:06.578Z,1033.3
2019-02-26T10:03:15.239Z,1033.3
2019-02-26T10:04:05.766Z,1033.2
2019-02-26T10:05:04.049Z,1033.3
2019-02-26T10:06:03.478Z,1033.3
2019-02-26T10:07:14.602Z,1033.3
2019-02-26T10:08:05.749Z,1033.3
2019-02-26T10:09:03.720Z,1033.2
2019-02-26T10:10:14.333Z,1033.2
2019-02-26T10:11:05.407Z,1033.2
2019-02-26T10:12:15.952Z,1033.2
2019-02-26T10:13:05.154Z,1033.2
2019-02-26T10:14:15.254Z,1033.3
2019-02-26T10:15:05.665Z,1033.2
2019-02-26T10:16:09.218Z,1033.3
2019-02-26T10:17:03.475Z,1033.2
2019-02-26T10:18:09.771Z,1033.2
2019-02-26T10:19:03.249Z,1033.2
2019-02-26T10:20:09.724Z,1033.1
2019-02-26T10:21:03.526Z,1033.2
2019-02-26T10:22:14.051Z,1033.1
2019-02-26T10:23:06.729Z,1033.2
2019-02-26T10:24:04.973Z,1033.2
2019-02-26T10:25:03.264Z,1033.2
2019-02-26T10:26:11.104Z,1033.1
2019-02-26T10:27:16.596Z,1033.1
2019-02-26T10:28:22.452Z,1033.1
2019-02-26T10:29:08.289Z,1033.1
2019-02-26T10:30:16.472Z,1033.1
2019-02-26T10:31:10.046Z,1033.1
2019-02-26T10:32:03.743Z,1033
2019-02-26T10:33:03.378Z,1033.1
2019-02-26T10:34:30.239Z,1033
2019-02-26T10:35:25.649Z,1033
2019-02-26T10:36:18.556Z,1033
2019-02-26T10:37:03.971Z,1032.9
2019-02-26T10:38:12.015Z,1032.9
2019-02-26T10:39:03.991Z,1032.7
2019-02-26T10:40:03.336Z,1032.8
2019-02-26T10:41:05.493Z,1032.7
2019-02-26T10:42:03.234Z,1032.8
2019-02-26T10:43:03.484Z,1032.8
2019-02-26T10:44:03.225Z,1032.9
2019-02-26T10:45:03.887Z,1032.9
2019-02-26T10:46:04.072Z,1032.9
2019-02-26T10:47:10.970Z,1032.9
2019-02-26T10:48:03.635Z,1033
2019-02-26T10:49:03.909Z,1032.7
2019-02-26T10:50:04.186Z,1032.9
2019-02-26T10:51:07.558Z,1032.8
2019-02-26T10:52:03.266Z,1032.9
2019-02-26T10:53:22.903Z,1032.8
2019-02-26T10:54:18.339Z,1032.9
2019-02-26T10:55:03.497Z,1032.8
2019-02-26T10:56:03.902Z,1032.8
2019-02-26T10:57:14.828Z,1032.7
2019-02-26T10:58:13.631Z,1032.7
2019-02-26T10:59:19.864Z,1032.9
2019-02-26T11:00:11.195Z,1032.8
2019-02-26T11:01:05.911Z,1032.8
2019-02-26T11:02:03.797Z,1032.7
2019-02-26T11:03:03.420Z,1032.7
2019-02-26T11:04:05.066Z,1032.7
2019-02-26T11:05:04.032Z,1032.6
2019-02-26T11:06:19.295Z,1032.6
2019-02-26T11:07:14.485Z,1032.6
2019-02-26T11:08:10.168Z,1032.6
2019-02-26T11:09:03.431Z,1032.7
2019-02-26T11:10:03.235Z,1032.8
2019-02-26T11:11:19.422Z,1032.8
2019-02-26T11:12:09.019Z,1032.6
2019-02-26T11:13:03.223Z,1032.8
2019-02-26T11:14:19.642Z,1032.6
2019-02-26T11:15:09.546Z,1032.6
2019-02-26T11:16:03.512Z,1032.6
2019-02-26T11:17:04.045Z,1032.6
2019-02-26T11:18:03.077Z,1032.6
2019-02-26T11:19:12.626Z,1032.6
2019-02-26T11:20:08.108Z,1032.7
2019-02-26T11:21:03.400Z,1032.6
2019-02-26T11:22:04.691Z,1032.6
2019-02-26T11:23:16.449Z,1032.7
2019-02-26T11:24:11.513Z,1032.7
2019-02-26T11:25:03.677Z,1032.6
2019-02-26T11:26:18.999Z,1032.5
2019-02-26T11:27:03.757Z,1032.5
2019-02-26T11:28:13.273Z,1032.6
2019-02-26T11:29:03.852Z,1032.4
2019-02-26T11:30:05.454Z,1032.5
2019-02-26T11:31:03.745Z,1032.4
2019-02-26T11:32:15.889Z,1032.5
2019-02-26T11:33:15.842Z,1032.4
2019-02-26T11:34:13.696Z,1032.6
2019-02-26T11:35:03.512Z,1032.4
2019-02-26T11:36:15.881Z,1032.6
2019-02-26T11:37:09.347Z,1032.6
2019-02-26T11:38:03.417Z,1032.6
2019-02-26T11:39:12.354Z,1032.4
2019-02-26T11:40:05.895Z,1032.5
2019-02-26T11:41:03.378Z,1032.5
2019-02-26T11:42:03.448Z,1032.4
2019-02-26T11:43:29.082Z,1032.4
2019-02-26T11:44:27.748Z,1032.4
2019-02-26T11:45:19.547Z,1032.4
2019-02-26T11:46:09.033Z,1032.3
2019-02-26T11:47:03.886Z,1032.5
2019-02-26T11:48:09.177Z,1032.5
2019-02-26T11:49:03.964Z,1032.3
2019-02-26T11:50:12.068Z,1032.3
2019-02-26T11:51:04.025Z,1032.3
2019-02-26T11:52:04.998Z,1032.2
2019-02-26T11:53:03.942Z,1032.2
2019-02-26T11:54:17.843Z,1032.2
2019-02-26T11:55:11.588Z,1032.1
2019-02-26T11:56:03.560Z,1032.2
2019-02-26T11:57:18.006Z,1032.1
2019-02-26T11:58:24.314Z,1032
2019-02-26T11:59:19.696Z,1031.9
2019-02-26T12:00:09.436Z,1031.9
2019-02-26T12:01:03.226Z,1031.9
2019-02-26T12:02:06.802Z,1031.9
2019-02-26T12:03:03.740Z,1031.9
2019-02-26T12:04:17.310Z,1031.9
2019-02-26T12:05:11.007Z,1031.8
2019-02-26T12:06:03.458Z,1031.9
2019-02-26T12:07:10.115Z,1031.9
2019-02-26T12:08:02.986Z,1031.9
2019-02-26T12:09:16.419Z,1031.8
2019-02-26T12:10:15.031Z,1031.8
2019-02-26T12:12:11.869Z,1031.9
2019-02-26T12:13:03.766Z,1031.8
2019-02-26T12:13:04.084Z,1031.9
2019-02-26T12:14:03.644Z,1031.8
2019-02-26T12:16:03.779Z,1031.7
2019-02-26T12:17:03.173Z,1031.7
2019-02-26T12:17:15.135Z,1031.7
2019-02-26T12:18:03.810Z,1031.8
2019-02-26T12:19:11.082Z,1031.7
2019-02-26T12:20:04.008Z,1031.8
2019-02-26T12:21:13.151Z,1031.7
2019-02-26T12:22:06.418Z,1031.8
2019-02-26T12:23:03.204Z,1031.8
2019-02-26T12:24:12.798Z,1031.8
2019-02-26T12:25:11.504Z,1031.6
2019-02-26T12:26:04.332Z,1031.7
2019-02-26T12:27:03.501Z,1031.7
2019-02-26T12:28:13.961Z,1031.7
2019-02-26T12:29:04.838Z,1031.5
2019-02-26T12:30:03.882Z,1031.6
2019-02-26T12:31:13.238Z,1031.5
2019-02-26T12:32:05.193Z,1031.5
2019-02-26T12:33:03.690Z,1031.4
2019-02-26T12:34:03.525Z,1031.4